Time;durP1;ratioP1;P1;durP2;ratioP2;P2;SDS_P1;SDS_P2;PMS_P1;PMS_P2;Temp;Humidity;BMP_temperature;BMP_pressure;BME280_temperature;BME280_humidity;BME280_pressure;Samples;Min_cycle;Max_cycle;Signal;HPM_P1;HPM_P2
2022/08/05 00:02:21;;;;;;;1.98;1.15;;;;;;;27.47;44.69;100637.69;5106466;28;20050;-61
2022/08/05 00:05:07;;;;;;;2.97;0.95;;;;;;;27.39;44.49;100631.47;5110928;28;20058;-61
2022/08/05 00:07:52;;;;;;;7.65;1.50;;;;;;;27.26;44.64;100615.81;5117595;28;20050;-60
2022/08/05 00:10:37;;;;;;;3.47;1.20;;;;;;;27.22;44.91;100627.84;5112806;28;20034;-60
2022/08/05 00:13:22;;;;;;;5.63;1.40;;;;;;;27.20;44.69;100627.50;5119116;28;20402;-59
2022/08/05 00:16:09;;;;;;;11.00;2.03;;;;;;;27.19;44.68;100627.91;5117098;28;20050;-60
2022/08/05 00:18:54;;;;;;;2.72;1.20;;;;;;;27.16;44.58;100617.63;5123932;27;20417;-61
2022/08/05 00:21:39;;;;;;;8.07;1.17;;;;;;;27.18;44.67;100624.31;5106505;28;20039;-62
2022/08/05 00:24:24;;;;;;;3.40;1.42;;;;;;;27.13;44.60;100624.84;5114744;28;20070;-61
2022/08/05 00:27:09;;;;;;;1.30;1.02;;;;;;;27.13;44.39;100624.84;5113983;28;20070;-60
2022/08/05 00:29:54;;;;;;;2.65;1.20;;;;;;;27.12;44.64;100619.69;5118449;28;20071;-62
2022/08/05 00:32:39;;;;;;;2.92;1.17;;;;;;;27.10;44.17;100617.31;5101639;28;20513;-61
2022/08/05 00:35:24;;;;;;;3.03;1.30;;;;;;;27.08;44.13;100616.97;5129911;27;20512;-61
2022/08/05 00:38:09;;;;;;;3.20;1.20;;;;;;;27.10;43.98;100617.31;5114540;27;20051;-59
2022/08/05 00:40:57;;;;;;;1.50;0.73;;;;;;;27.10;44.19;100608.16;5108313;28;20051;-62
2022/08/05 00:43:41;;;;;;;1.92;0.90;;;;;;;27.05;44.25;100603.09;5113892;28;20043;-61
2022/08/05 00:46:27;;;;;;;1.42;1.25;;;;;;;27.04;44.12;100609.88;5119120;28;20059;-61
2022/08/05 00:49:11;;;;;;;3.90;1.08;;;;;;;27.01;44.38;100608.75;5117664;28;20398;-61
2022/08/05 00:51:56;;;;;;;3.60;1.27;;;;;;;26.97;44.17;100610.03;5111445;28;20047;-60
2022/08/05 00:54:41;;;;;;;1.25;0.80;;;;;;;27.00;44.11;100604.38;5119413;28;20465;-61
2022/08/05 00:57:26;;;;;;;4.97;1.15;;;;;;;27.06;44.06;100607.47;5113066;28;20128;-61
2022/08/05 01:00:12;;;;;;;2.40;1.23;;;;;;;27.06;44.30;100601.88;5113333;28;20062;-60
2022/08/05 01:02:58;;;;;;;3.30;0.95;;;;;;;27.00;44.32;100596.00;5113312;28;20402;-61
2022/08/05 01:05:26;;;;;;;1.40;1.13;;;;;;;27.00;44.36;100590.41;5144295;22;20059;-81
2022/08/05 01:08:11;;;;;;;1.65;0.98;;;;;;;27.00;44.07;100587.63;5118641;27;20050;-81
2022/08/05 01:11:25;;;;;;;3.25;1.17;;;;;;;27.05;44.02;100587.13;5131642;27;20050;-81
2022/08/05 01:14:16;;;;;;;1.20;1.10;;;;;;;27.08;43.97;100579.88;5104466;28;20047;-80
2022/08/05 01:17:12;;;;;;;2.05;1.05;;;;;;;27.08;44.11;100583.47;5119788;28;20046;-81
2022/08/05 01:20:16;;;;;;;2.88;1.13;;;;;;;27.12;44.12;100578.59;5099282;28;20051;-81
2022/08/05 01:23:12;;;;;;;4.85;1.25;;;;;;;27.08;44.44;100582.66;5098848;28;20047;-81
2022/08/05 01:26:25;;;;;;;6.35;1.60;;;;;;;27.12;44.25;100578.59;5091333;28;20055;-81
2022/08/05 01:29:17;;;;;;;6.57;1.27;;;;;;;27.12;44.20;100581.38;5116759;28;20039;-81
2022/08/05 01:32:06;;;;;;;2.45;1.27;;;;;;;27.09;44.98;100576.66;5114202;28;20046;-81
2022/08/05 01:34:57;;;;;;;4.07;1.80;;;;;;;27.08;44.71;100572.28;5100442;28;20035;-81
2022/08/05 01:37:52;;;;;;;3.35;1.20;;;;;;;27.06;44.89;100577.53;5113644;28;20046;-81
2022/08/05 01:40:38;;;;;;;6.82;1.30;;;;;;;27.01;45.26;100571.66;5100159;28;20042;-81
2022/08/05 01:43:24;;;;;;;3.75;1.55;;;;;;;27.00;45.38;100570.88;5098047;28;20050;-80
2022/08/05 01:46:10;;;;;;;7.70;1.40;;;;;;;27.04;45.50;100577.16;5110533;28;20046;-81
2022/08/05 01:48:57;;;;;;;3.63;1.23;;;;;;;27.04;45.57;100581.97;5120357;28;20058;-81
2022/08/05 01:51:42;;;;;;;1.25;0.95;;;;;;;26.95;45.40;100574.19;5120642;28;20510;-81
2022/08/05 01:54:45;;;;;;;1.60;1.05;;;;;;;26.97;45.39;100566.13;5128385;27;20069;-81
2022/08/05 01:57:32;;;;;;;2.03;1.35;;;;;;;26.90;45.86;100565.53;5125244;27;20047;-81
2022/08/05 02:00:18;;;;;;;1.20;0.98;;;;;;;26.88;45.86;100571.53;5119438;28;20051;-80
2022/08/05 02:03:08;;;;;;;2.63;1.30;;;;;;;26.85;45.39;100579.94;5118549;28;20554;-80
2022/08/05 02:05:53;;;;;;;9.32;1.35;;;;;;;26.81;45.30;100568.88;5101492;28;20055;-80
2022/08/05 02:08:39;;;;;;;7.13;1.25;;;;;;;26.77;45.34;100568.91;5099343;28;20051;-81
2022/08/05 02:11:26;;;;;;;2.70;1.13;;;;;;;26.83;45.38;100572.00;5098680;28;20054;-81
2022/08/05 02:14:14;;;;;;;4.38;1.65;;;;;;;26.80;45.68;100573.66;5099589;28;20066;-80
2022/08/05 02:17:10;;;;;;;1.58;1.20;;;;;;;26.89;45.66;100573.09;5108732;27;20050;-81
2022/08/05 02:20:00;;;;;;;8.82;1.58;;;;;;;26.91;45.60;100576.25;5102714;28;20047;-80
2022/08/05 02:22:49;;;;;;;1.67;1.25;;;;;;;26.88;45.59;100571.53;5097704;28;20054;-80
2022/08/05 02:25:36;;;;;;;5.60;1.10;;;;;;;26.83;45.72;100583.16;5107003;27;20042;-80
2022/08/05 02:28:25;;;;;;;9.15;1.90;;;;;;;26.79;45.71;100579.66;5131461;27;20050;-80
2022/08/05 02:31:16;;;;;;;3.67;1.60;;;;;;;26.78;45.78;100573.28;5139582;27;20042;-80
2022/08/05 02:34:07;;;;;;;1.90;1.30;;;;;;;26.79;45.58;100576.88;5127115;27;20055;-80
2022/08/05 02:36:55;;;;;;;1.90;1.35;;;;;;;26.75;45.62;100576.16;5112335;28;20427;-80
2022/08/05 02:39:41;;;;;;;4.97;1.50;;;;;;;26.78;45.39;100589.25;5105726;28;20515;-80
2022/08/05 02:42:26;;;;;;;2.08;1.38;;;;;;;26.67;45.57;100581.06;5117667;28;20070;-81
2022/08/05 02:45:13;;;;;;;2.25;1.35;;;;;;;26.66;45.27;100567.56;5108303;28;20051;-81
2022/08/05 02:48:00;;;;;;;4.50;1.05;;;;;;;26.68;45.48;100567.91;5096996;28;20045;-81
2022/08/05 02:50:47;;;;;;;2.85;1.00;;;;;;;26.65;45.68;100566.78;5113621;27;20038;-81
2022/08/05 02:53:32;;;;;;;4.75;1.30;;;;;;;26.66;45.25;100568.38;5125326;27;20042;-81
2022/08/05 02:56:18;;;;;;;2.40;1.52;;;;;;;26.62;45.46;100556.47;5108289;28;20051;-81
2022/08/05 02:59:04;;;;;;;6.57;1.40;;;;;;;26.64;45.00;100561.63;5113243;27;20537;-81
2022/08/05 03:01:56;;;;;;;5.43;1.33;;;;;;;26.66;45.27;100564.78;5112348;28;20050;-81
2022/08/05 03:04:43;;;;;;;6.72;1.27;;;;;;;26.58;45.40;100560.53;5105145;28;20043;-80
2022/08/05 03:07:28;;;;;;;2.85;1.10;;;;;;;26.63;45.22;100562.84;5119282;28;20054;-80
2022/08/05 03:10:15;;;;;;;10.77;1.52;;;;;;;26.61;45.29;100562.50;5119056;28;20050;-80
2022/08/05 03:12:59;;;;;;;2.22;1.23;;;;;;;26.60;45.04;100560.91;5130547;27;20519;-81
2022/08/05 03:15:46;;;;;;;77.35;52.30;;;;;;;26.60;45.25;100555.34;5129460;27;20046;-81
2022/08/05 03:18:31;;;;;;;2.65;1.10;;;;;;;26.60;45.31;100552.53;5115565;28;20047;-81
2022/08/05 03:21:16;;;;;;;2.60;1.25;;;;;;;26.57;45.29;100564.53;5118375;28;20047;-82
2022/08/05 03:24:02;;;;;;;2.75;1.17;;;;;;;26.58;45.68;100554.97;5085231;28;20051;-82
2022/08/05 03:26:46;;;;;;;2.90;1.23;;;;;;;26.60;45.35;100561.69;5104395;28;20051;-81
2022/08/05 03:29:31;;;;;;;11.50;1.52;;;;;;;26.59;45.21;100562.91;5105181;28;20058;-81
2022/08/05 03:32:18;;;;;;;4.32;1.33;;;;;;;26.54;45.18;100554.25;5118273;28;20047;-82
2022/08/05 03:35:04;;;;;;;1.27;1.15;;;;;;;26.55;45.15;100567.00;5127277;27;20050;-81
2022/08/05 03:37:49;;;;;;;2.67;1.20;;;;;;;26.57;45.26;100564.53;5116267;28;20043;-81
2022/08/05 03:40:38;;;;;;;2.17;1.70;;;;;;;26.56;45.19;100563.00;5106560;28;20047;-81
2022/08/05 03:43:24;;;;;;;5.57;1.63;;;;;;;26.56;45.61;100569.34;5122855;28;20042;-80
2022/08/05 03:46:09;;;;;;;7.43;1.30;;;;;;;26.36;45.84;100565.75;5122767;28;20054;-79
2022/08/05 03:48:54;;;;;;;3.80;1.60;;;;;;;25.92;47.84;100564.09;5122822;28;20047;-80
2022/08/05 03:51:59;;;;;;;4.18;1.65;;;;;;;25.61;47.84;100562.59;5111323;28;20057;-79
2022/08/05 03:54:52;;;;;;;1.83;1.33;;;;;;;25.73;47.27;100560.03;5111964;27;20038;-80
2022/08/05 03:57:40;;;;;;;3.15;1.63;;;;;;;25.62;47.96;100561.38;5119108;27;20051;-80
2022/08/05 04:00:30;;;;;;;4.32;1.70;;;;;;;25.64;47.45;100557.00;5101839;28;20047;-80
2022/08/05 04:03:16;;;;;;;3.20;1.42;;;;;;;25.95;48.13;100566.03;5111388;27;20046;-80
2022/08/05 04:06:02;;;;;;;2.58;1.60;;;;;;;26.31;47.43;100555.09;5105846;28;20043;-80
2022/08/05 04:08:49;;;;;;;4.75;1.50;;;;;;;26.56;46.86;100569.34;5106526;27;20046;-81
2022/08/05 04:11:35;;;;;;;4.05;1.20;;;;;;;26.64;46.81;100570.00;5105224;27;20039;-81
2022/08/05 04:14:21;;;;;;;3.58;1.30;;;;;;;26.71;46.68;100569.88;5106425;28;20051;-81
2022/08/05 04:17:08;;;;;;;5.05;1.50;;;;;;;26.74;46.88;100569.00;5122072;27;20050;-80
2022/08/05 04:19:53;;;;;;;14.40;2.05;;;;;;;26.76;47.04;100572.16;5115951;28;20074;-80
2022/08/05 04:22:38;;;;;;;4.05;1.17;;;;;;;26.78;46.94;100559.34;5115385;27;20046;-80
2022/08/05 04:25:23;;;;;;;2.08;1.40;;;;;;;26.76;47.30;100555.41;5127602;27;20046;-81
2022/08/05 04:28:08;;;;;;;2.50;1.33;;;;;;;26.73;46.91;100562.63;5110726;28;20046;-81
2022/08/05 04:30:53;;;;;;;5.15;1.42;;;;;;;26.77;46.82;100557.75;5109279;28;20050;-81
2022/08/05 04:33:38;;;;;;;7.65;1.52;;;;;;;26.84;46.90;100565.19;5108418;28;20419;-80
2022/08/05 04:36:22;;;;;;;4.70;1.52;;;;;;;26.79;46.84;100562.91;5117084;27;20054;-80
2022/08/05 04:39:08;;;;;;;4.43;1.60;;;;;;;26.73;46.90;100559.03;5117347;27;20051;-81
2022/08/05 04:41:52;;;;;;;14.73;2.65;;;;;;;26.75;47.02;100563.00;5123804;27;20050;-80
2022/08/05 04:44:37;;;;;;;5.93;1.60;;;;;;;26.80;46.84;100564.50;5113371;28;20054;-81
2022/08/05 04:47:22;;;;;;;4.35;1.40;;;;;;;26.78;46.93;100558.53;5108113;28;20059;-80
2022/08/05 04:50:07;;;;;;;4.53;1.40;;;;;;;26.78;46.74;100566.91;5118959;28;20043;-81
2022/08/05 04:52:53;;;;;;;4.82;1.42;;;;;;;26.76;46.52;100566.56;5121585;28;20523;-81
2022/08/05 04:55:39;;;;;;;6.88;2.20;;;;;;;26.71;46.50;100561.50;5115234;27;20106;-81
2022/08/05 04:58:24;;;;;;;8.23;1.63;;;;;;;26.74;46.54;100560.63;5116787;27;20046;-82
2022/08/05 05:01:08;;;;;;;5.88;1.83;;;;;;;26.78;46.25;100555.75;5105263;27;20530;-80
2022/08/05 05:03:53;;;;;;;4.85;2.05;;;;;;;26.76;46.17;100555.41;5107661;28;20098;-80
2022/08/05 05:06:38;;;;;;;18.88;3.65;;;;;;;26.72;46.29;100555.47;5087243;28;20063;-80
2022/08/05 05:09:23;;;;;;;21.48;2.95;;;;;;;26.78;45.83;100552.97;5108421;27;20066;-79
2022/08/05 05:12:08;;;;;;;21.92;2.35;;;;;;;26.84;45.82;100554.03;5115754;27;20046;-80
2022/08/05 05:14:53;;;;;;;12.73;2.22;;;;;;;26.85;45.71;100555.63;5138264;27;20055;-78
2022/08/05 05:17:40;;;;;;;21.17;2.92;;;;;;;26.94;46.06;100553.06;5120431;28;20419;-79
2022/08/05 05:20:24;;;;;;;12.73;3.65;;;;;;;26.93;46.14;100554.28;5119817;27;20050;-80
2022/08/05 05:23:10;;;;;;;22.63;3.63;;;;;;;26.99;46.45;100562.94;5110955;27;20058;-80
2022/08/05 05:25:55;;;;;;;16.17;2.28;;;;;;;27.01;46.53;100566.88;5128704;27;20054;-81
2022/08/05 05:28:40;;;;;;;6.30;1.90;;;;;;;27.12;46.45;100577.81;5137420;27;20050;-80
2022/08/05 05:31:24;;;;;;;17.00;2.08;;;;;;;27.20;46.60;100582.03;5124557;27;20038;-80
2022/08/05 05:34:09;;;;;;;5.32;1.55;;;;;;;27.24;46.58;100575.13;5118446;28;20050;-81
2022/08/05 05:36:54;;;;;;;12.75;1.95;;;;;;;27.28;47.10;100577.09;5120221;27;20046;-81
2022/08/05 05:39:40;;;;;;;15.90;2.50;;;;;;;27.36;47.06;100572.91;5112429;28;20046;-82
2022/08/05 05:42:24;;;;;;;20.08;3.20;;;;;;;27.41;46.38;100575.97;5114296;28;20416;-87
2022/08/05 05:45:10;;;;;;;5.38;1.48;;;;;;;27.46;46.04;100577.47;5119609;28;20120;-80
2022/08/05 05:47:57;;;;;;;3.85;1.83;;;;;;;27.53;45.63;100577.34;5112491;28;20051;-81
2022/08/05 05:50:42;;;;;;;13.68;2.00;;;;;;;27.59;45.35;100575.56;5117416;27;20042;-80
2022/08/05 05:53:27;;;;;;;4.47;1.45;;;;;;;27.68;44.93;100581.38;5112264;28;20523;-80
2022/08/05 05:56:12;;;;;;;8.77;1.65;;;;;;;27.70;44.01;100576.13;5106945;28;20050;-80
2022/08/05 05:58:57;;;;;;;12.00;2.00;;;;;;;27.84;44.11;100584.16;5119775;27;20051;-81
2022/08/05 06:01:42;;;;;;;13.05;1.90;;;;;;;27.88;43.90;100576.47;5127582;27;20042;-81
2022/08/05 06:04:27;;;;;;;23.23;2.05;;;;;;;27.96;43.35;100579.88;5106629;28;20047;-81
2022/08/05 06:07:12;;;;;;;15.57;2.63;;;;;;;28.03;42.51;100586.09;5127951;27;20050;-81
2022/08/05 06:09:57;;;;;;;10.00;1.80;;;;;;;28.12;41.64;100576.31;5112323;28;20046;-80
2022/08/05 06:12:41;;;;;;;9.85;2.15;;;;;;;28.21;41.73;100580.06;5106610;27;20483;-80
2022/08/05 06:15:27;;;;;;;24.65;3.15;;;;;;;28.35;41.27;100576.09;5107022;27;20047;-78
2022/08/05 06:18:11;;;;;;;12.80;1.70;;;;;;;28.46;41.42;100571.00;5127533;27;20054;-80
2022/08/05 06:20:56;;;;;;;17.40;1.77;;;;;;;28.51;40.80;100573.25;5124587;27;20105;-80
2022/08/05 06:23:41;;;;;;;20.00;2.40;;;;;;;28.65;40.82;100581.25;5105198;28;20042;-79
2022/08/05 06:26:26;;;;;;;13.60;1.92;;;;;;;28.67;41.13;100578.81;5110541;27;20062;-81
2022/08/05 06:29:10;;;;;;;13.68;2.25;;;;;;;28.83;40.03;100569.59;5125874;27;20408;-81
2022/08/05 06:31:55;;;;;;;25.55;2.28;;;;;;;28.89;40.34;100579.81;5126215;27;20546;-80
2022/08/05 06:34:40;;;;;;;15.07;2.35;;;;;;;29.03;39.89;100587.03;5087740;28;20051;-81
2022/08/05 06:37:27;;;;;;;12.77;2.55;;;;;;;29.17;39.48;100583.00;5128028;27;20050;-80
2022/08/05 06:40:12;;;;;;;9.80;2.85;;;;;;;29.20;39.57;100576.53;5129647;27;20053;-81
2022/08/05 06:42:56;;;;;;;22.60;2.22;;;;;;;29.23;39.58;100586.81;5103483;28;20046;-81
2022/08/05 06:45:41;;;;;;;13.52;2.20;;;;;;;29.11;39.94;100591.16;5108867;27;20093;-81
2022/08/05 06:48:28;;;;;;;21.48;1.83;;;;;;;29.31;39.58;100586.19;5113661;27;20054;-81
2022/08/05 06:51:12;;;;;;;22.23;2.67;;;;;;;29.56;38.79;100593.06;5097502;28;20056;-80
2022/08/05 06:53:58;;;;;;;14.90;2.17;;;;;;;29.87;38.18;100585.63;5127705;27;20050;-80
2022/08/05 06:56:43;;;;;;;14.85;2.03;;;;;;;30.32;37.26;100590.97;5124461;27;20054;-81
2022/08/05 06:59:28;;;;;;;24.73;2.83;;;;;;;30.08;38.46;100595.38;5102381;27;20046;-81
2022/08/05 07:02:13;;;;;;;11.18;1.90;;;;;;;30.05;38.30;100590.69;5120110;27;20043;-81
2022/08/05 07:04:58;;;;;;;24.95;2.55;;;;;;;30.43;37.35;100596.19;5135814;22;20055;-80
2022/08/05 07:07:43;;;;;;;19.02;2.75;;;;;;;31.04;35.65;100581.56;5094689;28;20055;-81
2022/08/05 07:10:28;;;;;;;12.13;2.15;;;;;;;31.25;35.22;100592.00;5101819;28;20059;-83
2022/08/05 07:19:21;;;;;;;14.10;2.27;;;;;;;32.58;32.98;100597.41;5100616;28;20043;-79
2022/08/05 07:22:08;;;;;;;10.13;2.60;;;;;;;33.59;31.15;100598.00;5109081;28;20468;-81
2022/08/05 07:24:52;;;;;;;17.83;2.40;;;;;;;34.49;30.05;100590.31;5096496;28;20047;-82
2022/08/05 07:27:37;;;;;;;11.48;2.30;;;;;;;34.48;30.13;100594.38;5091255;28;20042;-82
2022/08/05 07:30:23;;;;;;;12.10;1.73;;;;;;;34.32;29.46;100592.78;5100990;28;20051;-81
2022/08/05 07:33:09;;;;;;;10.32;1.60;;;;;;;35.78;26.92;100596.97;5104775;28;20047;-81
2022/08/05 07:35:54;;;;;;;9.18;2.50;;;;;;;36.92;24.76;100597.41;5110530;28;20420;-81
2022/08/05 07:38:39;;;;;;;123.57;24.80;;;;;;;37.32;24.55;100590.84;5112021;28;20126;-79
2022/08/05 07:41:24;;;;;;;521.05;130.43;;;;;;;37.17;24.55;100595.88;5112517;28;20043;-82
2022/08/05 07:44:09;;;;;;;29.77;4.10;;;;;;;37.56;23.85;100601.88;5094145;28;20428;-82
2022/08/05 07:46:54;;;;;;;25.08;4.43;;;;;;;38.21;21.95;100593.47;5085730;28;20443;-82
2022/08/05 07:49:38;;;;;;;11.48;1.83;;;;;;;37.36;22.72;100590.59;5107946;28;20046;-83
2022/08/05 07:52:23;;;;;;;20.50;2.28;;;;;;;37.93;21.90;100594.09;5112785;28;20042;-84
2022/08/05 07:55:11;;;;;;;24.90;5.63;;;;;;;38.05;23.17;100600.63;5109548;28;20058;-82
2022/08/05 07:57:57;;;;;;;9.93;2.28;;;;;;;38.46;21.80;100590.50;5104183;28;20066;-80
2022/08/05 08:00:42;;;;;;;26.63;4.55;;;;;;;38.04;25.21;100596.25;5106995;28;20407;-80
2022/08/05 08:03:27;;;;;;;8.45;1.58;;;;;;;39.01;20.67;100585.50;5111133;28;20054;-80
2022/08/05 08:06:13;;;;;;;18.00;6.72;;;;;;;41.05;19.46;100596.81;5103829;28;20055;-82
2022/08/05 08:08:57;;;;;;;11.13;1.80;;;;;;;41.14;18.69;100587.94;5101695;28;20054;-81
2022/08/05 08:11:42;;;;;;;8.57;1.42;;;;;;;40.57;19.83;100603.84;5106229;28;20050;-82
2022/08/05 08:14:26;;;;;;;5.75;0.90;;;;;;;40.12;19.45;100600.41;5109812;28;20051;-82
2022/08/05 08:17:11;;;;;;;2.97;0.68;;;;;;;39.35;19.21;100601.31;5114602;28;20057;-81
2022/08/05 08:19:56;;;;;;;13.70;1.65;;;;;;;40.65;18.53;100600.44;5104453;28;20054;-82
2022/08/05 08:22:41;;;;;;;5.03;0.70;;;;;;;39.34;19.62;100594.03;5115303;28;20050;-80
2022/08/05 08:25:29;;;;;;;9.20;1.05;;;;;;;39.71;19.24;100591.69;5110579;28;20050;-82
2022/08/05 08:28:14;;;;;;;2.97;1.80;;;;;;;40.84;18.58;100596.41;5120306;28;20051;-82
2022/08/05 08:30:59;;;;;;;1.05;0.68;;;;;;;40.96;17.16;100597.91;5107744;28;20047;-83
2022/08/05 08:33:45;;;;;;;1.40;0.90;;;;;;;40.86;18.73;100593.03;5102662;28;20047;-80
2022/08/05 08:36:29;;;;;;;6.63;0.80;;;;;;;40.87;19.26;100601.09;5099604;28;20047;-80
2022/08/05 08:39:16;;;;;;;5.38;1.00;;;;;;;40.86;19.19;100584.47;5106591;28;20047;-79
2022/08/05 08:42:03;;;;;;;1.63;0.82;;;;;;;41.96;17.31;100595.50;5122566;28;20054;-80
2022/08/05 08:44:48;;;;;;;2.95;0.98;;;;;;;41.77;18.49;100598.25;5106409;28;20439;-76
2022/08/05 08:47:34;;;;;;;12.93;1.30;;;;;;;40.48;20.29;100584.19;5111375;28;20051;-81
2022/08/05 08:50:20;;;;;;;10.50;1.85;;;;;;;40.58;18.60;100585.44;5118624;28;20047;-81
2022/08/05 08:53:06;;;;;;;6.20;0.88;;;;;;;41.03;17.55;100585.16;5118651;28;20047;-78
2022/08/05 08:55:51;;;;;;;3.88;1.63;;;;;;;42.25;17.47;100586.81;5123410;28;20095;-79
2022/08/05 08:58:36;;;;;;;2.40;0.80;;;;;;;41.96;17.57;100590.53;5113353;28;20057;-79
2022/08/05 09:01:21;;;;;;;7.55;0.98;;;;;;;42.10;16.91;100585.72;5127166;28;20050;-79
2022/08/05 09:04:07;;;;;;;1.92;0.60;;;;;;;41.73;18.08;100578.56;5121783;28;20110;-80
2022/08/05 09:06:52;;;;;;;4.85;0.80;;;;;;;42.64;17.01;100586.28;5111111;28;20054;-80
2022/08/05 09:09:38;;;;;;;10.35;1.35;;;;;;;41.71;17.60;100581.16;5117549;28;20046;-82
2022/08/05 09:12:22;;;;;;;2.03;0.80;;;;;;;42.64;16.34;100586.28;5110137;28;20042;-81
2022/08/05 09:15:08;;;;;;;4.50;0.90;;;;;;;44.07;15.60;100591.41;5112664;28;20062;-81
2022/08/05 09:17:53;;;;;;;4.22;1.10;;;;;;;42.99;16.21;100588.09;5125435;28;20046;-80
2022/08/05 09:20:40;;;;;;;10.05;1.40;;;;;;;42.50;17.21;100592.47;5109385;28;20121;-79
2022/08/05 09:23:25;;;;;;;12.05;2.00;;;;;;;42.55;16.50;100594.50;5112561;28;20054;-80
2022/08/05 09:26:18;;;;;;;6.40;0.95;;;;;;;41.47;17.88;100594.66;5123908;28;20059;-79
2022/08/05 09:29:05;;;;;;;8.20;0.70;;;;;;;42.88;16.31;100594.00;5119165;28;20050;-81
2022/08/05 09:32:10;;;;;;;8.98;1.20;;;;;;;41.66;17.40;100587.72;5108513;28;20046;-80
2022/08/05 09:34:57;;;;;;;4.93;0.80;;;;;;;41.67;16.99;100585.63;5101918;28;20038;-79
2022/08/05 09:37:50;;;;;;;3.63;0.70;;;;;;;41.21;17.20;100578.78;5103725;28;20040;-80
2022/08/05 09:40:39;;;;;;;11.20;0.80;;;;;;;42.74;15.74;100589.53;5109677;28;20047;-78
2022/08/05 09:43:27;;;;;;;1.02;0.50;;;;;;;42.94;16.49;100586.09;5106159;28;20043;-81
2022/08/05 09:46:37;;;;;;;1.80;0.65;;;;;;;41.84;17.47;100584.16;5132389;27;20051;-79
2022/08/05 09:49:23;;;;;;;3.50;1.27;;;;;;;40.88;18.92;100576.19;5100617;28;20427;-79
2022/08/05 09:52:29;;;;;;;1.67;0.80;;;;;;;41.70;18.19;100573.16;5107759;28;20050;-81
2022/08/05 09:55:14;;;;;;;2.92;0.70;;;;;;;41.33;18.16;100574.53;5105466;28;20120;-79
2022/08/05 09:57:58;;;;;;;9.13;0.95;;;;;;;41.29;16.84;100567.56;5109568;28;20042;-79
2022/08/05 10:01:01;;;;;;;2.58;0.60;;;;;;;42.26;17.18;100568.31;5108750;28;20051;-79
2022/08/05 10:03:58;;;;;;;1.55;0.70;;;;;;;41.56;15.33;100552.25;5110805;28;20419;-79
2022/08/05 10:06:54;;;;;;;0.77;0.60;;;;;;;42.51;14.04;100549.03;5122896;28;20415;-80
2022/08/05 10:09:54;;;;;;;9.13;0.82;;;;;;;43.02;14.15;100549.81;5121736;28;20039;-79
2022/08/05 10:12:41;;;;;;;4.13;0.50;;;;;;;44.52;13.74;100551.84;5115483;28;20047;-78
2022/08/05 10:15:30;;;;;;;4.70;0.90;;;;;;;44.04;14.63;100549.53;5108111;28;20411;-78
2022/08/05 10:18:26;;;;;;;3.92;0.50;;;;;;;44.11;14.32;100545.97;5111350;28;20055;-80
2022/08/05 10:21:11;;;;;;;2.45;0.70;;;;;;;44.10;14.45;100535.81;5123587;28;20042;-80
2022/08/05 10:23:56;;;;;;;3.17;0.57;;;;;;;44.73;13.87;100541.22;5121821;28;20416;-81
2022/08/05 10:26:42;;;;;;;2.92;0.55;;;;;;;44.63;14.23;100543.00;5106563;28;20055;-80
2022/08/05 10:29:28;;;;;;;4.55;0.70;;;;;;;44.53;14.65;100546.88;5120074;28;20050;-81
2022/08/05 10:32:14;;;;;;;1.13;0.40;;;;;;;43.90;15.25;100538.06;5104409;28;20058;-81
2022/08/05 10:34:59;;;;;;;2.25;0.60;;;;;;;42.89;15.97;100535.47;5118237;28;20063;-80
2022/08/05 10:37:44;;;;;;;5.25;0.60;;;;;;;41.23;17.82;100524.03;5105945;28;20408;-79
2022/08/05 10:40:34;;;;;;;6.30;0.80;;;;;;;40.38;19.24;100519.47;5105275;28;20050;-78
2022/08/05 10:43:43;;;;;;;1.48;0.52;;;;;;;41.65;17.75;100523.34;5103421;28;20058;-79
2022/08/05 10:46:48;;;;;;;56.90;23.83;;;;;;;42.01;17.79;100523.97;5102157;28;20047;-81
2022/08/05 10:49:33;;;;;;;1.52;0.60;;;;;;;42.58;17.59;100522.66;5104705;28;20047;-80
2022/08/05 10:52:40;;;;;;;2.03;0.63;;;;;;;40.99;18.68;100514.06;5102431;28;20043;-81
2022/08/05 10:55:26;;;;;;;3.00;1.00;;;;;;;39.45;20.53;100516.41;5103590;28;20047;-80
2022/08/05 10:58:12;;;;;;;1.65;0.57;;;;;;;39.26;20.69;100511.25;5099177;28;20062;-80
2022/08/05 11:00:57;;;;;;;0.93;0.63;;;;;;;39.03;20.97;100506.84;5090584;28;20531;-80
2022/08/05 11:04:00;;;;;;;0.50;0.50;;;;;;;38.54;21.54;100505.53;5095632;28;20047;-80
2022/08/05 11:07:00;;;;;;;1.98;0.60;;;;;;;37.63;22.36;100507.72;5090887;28;20046;-80
2022/08/05 11:09:48;;;;;;;1.77;0.60;;;;;;;37.80;22.21;100500.06;5098024;28;20054;-77
2022/08/05 11:12:33;;;;;;;1.02;0.75;;;;;;;36.88;23.14;100500.44;5112920;28;20105;-78
2022/08/05 11:15:20;;;;;;;4.55;1.33;;;;;;;36.67;23.35;100496.16;5113221;28;20420;-80
2022/08/05 11:18:24;;;;;;;3.40;0.60;;;;;;;36.20;24.38;100498.22;5093971;28;20455;-77
2022/08/05 11:21:31;;;;;;;4.53;0.80;;;;;;;35.94;24.11;100498.13;5110269;28;20105;-78
2022/08/05 11:24:16;;;;;;;5.05;1.10;;;;;;;35.67;24.94;100497.75;5090991;28;20039;-79
2022/08/05 11:27:30;;;;;;;2.45;0.82;;;;;;;34.31;26.97;100489.56;5109353;28;20070;-80
2022/08/05 11:30:15;;;;;;;12.65;2.40;;;;;;;33.65;28.54;100488.91;5097496;28;20043;-79
2022/08/05 11:33:25;;;;;;;4.03;0.80;;;;;;;33.22;28.79;100479.75;5095118;28;20059;-78
2022/08/05 11:36:11;;;;;;;7.53;1.15;;;;;;;32.81;30.16;100488.97;5081139;28;20047;-77
2022/08/05 11:38:56;;;;;;;2.08;0.88;;;;;;;32.58;30.14;100491.16;5103663;28;20047;-78
2022/08/05 11:41:49;;;;;;;2.90;0.80;;;;;;;32.54;30.75;100493.38;5105578;28;20042;-77
2022/08/05 11:44:37;;;;;;;1.47;0.87;;;;;;;32.24;31.19;100491.53;5112820;28;20054;-78
2022/08/05 11:47:22;;;;;;;3.33;1.08;;;;;;;32.13;31.21;100483.56;5103449;28;20051;-77
2022/08/05 11:50:07;;;;;;;1.40;0.80;;;;;;;31.92;31.42;100481.63;5112493;28;20055;-79
2022/08/05 11:52:53;;;;;;;0.80;0.80;;;;;;;31.98;31.42;100479.78;5112828;28;20071;-79
2022/08/05 11:55:51;;;;;;;2.17;0.82;;;;;;;32.01;31.14;100476.00;5106781;28;20054;-79
2022/08/05 11:58:39;;;;;;;3.83;0.90;;;;;;;32.00;31.61;100480.06;5108561;28;20047;-79
2022/08/05 12:01:23;;;;;;;1.70;0.77;;;;;;;31.88;31.61;100475.38;5114377;28;20051;-79
2022/08/05 12:04:08;;;;;;;1.67;0.98;;;;;;;31.90;31.37;100467.25;5117019;28;20046;-79
2022/08/05 12:06:54;;;;;;;2.63;1.08;;;;;;;32.28;30.97;100471.66;5111727;28;20054;-78
2022/08/05 12:09:43;;;;;;;1.38;0.55;;;;;;;32.34;30.70;100458.53;5109622;28;20043;-80
2022/08/05 12:12:28;;;;;;;0.70;0.70;;;;;;;32.15;31.63;100469.78;5117669;28;20050;-78
2022/08/05 12:15:20;;;;;;;14.10;1.50;;;;;;;32.35;30.57;100468.53;5117066;28;20043;-80
2022/08/05 12:18:04;;;;;;;3.03;0.90;;;;;;;32.21;31.21;100465.09;5119242;28;20055;-80
2022/08/05 12:20:49;;;;;;;9.18;1.10;;;;;;;32.59;30.54;100458.16;5122779;28;20043;-78
2022/08/05 12:23:34;;;;;;;3.13;0.90;;;;;;;32.52;30.83;100462.06;5117056;28;20408;-79
2022/08/05 12:26:19;;;;;;;3.03;0.90;;;;;;;32.31;31.26;100460.22;5108274;28;20047;-79
2022/08/05 12:29:13;;;;;;;5.20;1.30;;;;;;;32.05;31.88;100456.94;5115577;28;20054;-79
2022/08/05 12:31:59;;;;;;;1.85;1.13;;;;;;;31.87;32.37;100448.50;5112043;28;20522;-79
2022/08/05 12:34:44;;;;;;;2.58;1.08;;;;;;;32.30;31.37;100449.47;5110659;28;20042;-80
2022/08/05 12:37:29;;;;;;;4.63;0.90;;;;;;;32.31;31.61;100448.19;5117280;28;20047;-80
2022/08/05 12:40:14;;;;;;;2.45;0.90;;;;;;;32.37;31.51;100447.09;5117077;28;20058;-81
2022/08/05 12:42:59;;;;;;;1.65;0.95;;;;;;;32.47;31.49;100450.66;5116564;28;20063;-80
2022/08/05 12:45:52;;;;;;;13.23;1.20;;;;;;;32.37;31.65;100435.03;5108035;28;20047;-77
2022/08/05 12:48:38;;;;;;;3.85;1.00;;;;;;;32.10;32.54;100433.78;5102865;28;20042;-78
2022/08/05 12:51:23;;;;;;;2.92;1.20;;;;;;;32.01;32.58;100436.63;5109220;28;20050;-79
2022/08/05 12:54:08;;;;;;;3.95;1.20;;;;;;;31.97;32.58;100421.94;5104172;28;20039;-79
2022/08/05 12:57:00;;;;;;;4.00;0.95;;;;;;;32.12;32.32;100417.25;5117237;28;20047;-79
2022/08/05 12:59:47;;;;;;;2.25;1.50;;;;;;;32.18;32.40;100421.00;5116694;28;20404;-79
2022/08/05 13:02:35;;;;;;;6.45;1.20;;;;;;;32.06;32.30;100413.47;5106893;28;20050;-78